sensor_id;sensor_type;location;lat;lon;timestamp;temperature;humidity
14705;DHT22;7442;50.840;3.396;2022-08-14T00:02:42;27.60;43.20
14705;DHT22;7442;50.840;3.396;2022-08-14T00:05:29;27.60;43.10
14705;DHT22;7442;50.840;3.396;2022-08-14T00:08:16;27.60;43.10
14705;DHT22;7442;50.840;3.396;2022-08-14T00:11:02;27.60;43.00
14705;DHT22;7442;50.840;3.396;2022-08-14T00:13:49;27.70;42.90
14705;DHT22;7442;50.840;3.396;2022-08-14T00:16:35;27.70;42.80
14705;DHT22;7442;50.840;3.396;2022-08-14T00:19:22;27.80;42.80
14705;DHT22;7442;50.840;3.396;2022-08-14T00:22:08;27.80;42.80
14705;DHT22;7442;50.840;3.396;2022-08-14T00:24:56;27.80;42.80
14705;DHT22;7442;50.840;3.396;2022-08-14T00:27:50;27.70;42.80
14705;DHT22;7442;50.840;3.396;2022-08-14T00:30:36;27.70;42.90
14705;DHT22;7442;50.840;3.396;2022-08-14T00:33:26;27.70;42.80
14705;DHT22;7442;50.840;3.396;2022-08-14T00:36:13;27.80;42.90
14705;DHT22;7442;50.840;3.396;2022-08-14T00:38:59;27.70;42.80
14705;DHT22;7442;50.840;3.396;2022-08-14T00:41:46;27.70;43.60
14705;DHT22;7442;50.840;3.396;2022-08-14T00:44:33;27.80;42.90
14705;DHT22;7442;50.840;3.396;2022-08-14T00:47:20;27.80;42.80
14705;DHT22;7442;50.840;3.396;2022-08-14T00:50:10;27.80;42.80
14705;DHT22;7442;50.840;3.396;2022-08-14T00:52:58;27.80;42.90
14705;DHT22;7442;50.840;3.396;2022-08-14T00:55:45;27.80;42.90
14705;DHT22;7442;50.840;3.396;2022-08-14T00:58:36;27.70;43.00
14705;DHT22;7442;50.840;3.396;2022-08-14T01:01:23;27.80;42.90
14705;DHT22;7442;50.840;3.396;2022-08-14T01:04:11;27.80;42.90
14705;DHT22;7442;50.840;3.396;2022-08-14T01:06:58;27.80;42.90
14705;DHT22;7442;50.840;3.396;2022-08-14T01:09:47;27.80;42.90
14705;DHT22;7442;50.840;3.396;2022-08-14T01:12:34;27.80;42.80
14705;DHT22;7442;50.840;3.396;2022-08-14T01:15:20;27.70;42.80
14705;DHT22;7442;50.840;3.396;2022-08-14T01:18:08;27.70;42.80
14705;DHT22;7442;50.840;3.396;2022-08-14T01:21:13;27.60;42.90
14705;DHT22;7442;50.840;3.396;2022-08-14T01:24:02;27.50;43.10
14705;DHT22;7442;50.840;3.396;2022-08-14T01:26:51;27.50;43.20
14705;DHT22;7442;50.840;3.396;2022-08-14T01:29:37;27.50;43.30
14705;DHT22;7442;50.840;3.396;2022-08-14T01:32:24;27.60;43.30
14705;DHT22;7442;50.840;3.396;2022-08-14T01:35:10;27.60;43.10
14705;DHT22;7442;50.840;3.396;2022-08-14T01:37:57;27.60;43.10
14705;DHT22;7442;50.840;3.396;2022-08-14T01:40:46;27.60;43.10
14705;DHT22;7442;50.840;3.396;2022-08-14T01:43:40;27.60;43.20
14705;DHT22;7442;50.840;3.396;2022-08-14T01:46:23;27.60;43.10
14705;DHT22;7442;50.840;3.396;2022-08-14T01:49:13;27.60;43.10
14705;DHT22;7442;50.840;3.396;2022-08-14T01:52:03;27.70;43.10
14705;DHT22;7442;50.840;3.396;2022-08-14T01:54:49;27.60;43.10
14705;DHT22;7442;50.840;3.396;2022-08-14T01:57:45;27.60;43.10
14705;DHT22;7442;50.840;3.396;2022-08-14T02:00:32;27.60;43.10
14705;DHT22;7442;50.840;3.396;2022-08-14T02:03:20;27.60;42.90
14705;DHT22;7442;50.840;3.396;2022-08-14T02:06:10;27.70;43.00
14705;DHT22;7442;50.840;3.396;2022-08-14T02:08:57;27.60;43.00
14705;DHT22;7442;50.840;3.396;2022-08-14T02:11:44;27.60;43.00
14705;DHT22;7442;50.840;3.396;2022-08-14T02:14:31;27.60;43.00
14705;DHT22;7442;50.840;3.396;2022-08-14T02:17:19;27.60;43.10
14705;DHT22;7442;50.840;3.396;2022-08-14T02:20:08;27.60;43.10
14705;DHT22;7442;50.840;3.396;2022-08-14T02:22:54;27.50;43.00
14705;DHT22;7442;50.840;3.396;2022-08-14T02:25:41;27.50;43.10
14705;DHT22;7442;50.840;3.396;2022-08-14T02:28:35;27.50;43.20
14705;DHT22;7442;50.840;3.396;2022-08-14T02:31:22;27.50;43.20
14705;DHT22;7442;50.840;3.396;2022-08-14T02:37:10;27.50;43.10
14705;DHT22;7442;50.840;3.396;2022-08-14T02:39:54;27.50;43.10
14705;DHT22;7442;50.840;3.396;2022-08-14T02:42:43;27.50;43.20
14705;DHT22;7442;50.840;3.396;2022-08-14T02:45:30;27.50;43.10
14705;DHT22;7442;50.840;3.396;2022-08-14T02:48:17;27.50;43.10
14705;DHT22;7442;50.840;3.396;2022-08-14T02:51:10;27.50;43.00
14705;DHT22;7442;50.840;3.396;2022-08-14T02:53:56;27.50;43.00
14705;DHT22;7442;50.840;3.396;2022-08-14T02:56:43;27.40;43.10
14705;DHT22;7442;50.840;3.396;2022-08-14T02:59:29;27.50;43.10
14705;DHT22;7442;50.840;3.396;2022-08-14T03:02:17;27.50;43.10
14705;DHT22;7442;50.840;3.396;2022-08-14T03:05:04;27.40;43.00
14705;DHT22;7442;50.840;3.396;2022-08-14T03:07:50;27.40;43.00
14705;DHT22;7442;50.840;3.396;2022-08-14T03:10:38;27.40;43.00
14705;DHT22;7442;50.840;3.396;2022-08-14T03:13:25;27.40;43.00
14705;DHT22;7442;50.840;3.396;2022-08-14T03:16:15;27.40;43.00
14705;DHT22;7442;50.840;3.396;2022-08-14T03:19:03;27.40;43.10
14705;DHT22;7442;50.840;3.396;2022-08-14T03:21:51;27.30;43.70
14705;DHT22;7442;50.840;3.396;2022-08-14T03:24:37;27.30;43.20
14705;DHT22;7442;50.840;3.396;2022-08-14T03:27:23;27.30;43.20
14705;DHT22;7442;50.840;3.396;2022-08-14T03:30:11;27.30;43.20
14705;DHT22;7442;50.840;3.396;2022-08-14T03:32:58;27.40;43.00
14705;DHT22;7442;50.840;3.396;2022-08-14T03:35:44;27.30;42.90
14705;DHT22;7442;50.840;3.396;2022-08-14T03:38:31;27.30;42.90
14705;DHT22;7442;50.840;3.396;2022-08-14T03:41:21;27.30;43.00
14705;DHT22;7442;50.840;3.396;2022-08-14T03:44:09;27.30;43.40
14705;DHT22;7442;50.840;3.396;2022-08-14T03:46:55;27.30;43.00
14705;DHT22;7442;50.840;3.396;2022-08-14T03:49:42;27.30;42.90
14705;DHT22;7442;50.840;3.396;2022-08-14T03:52:30;27.30;42.90
14705;DHT22;7442;50.840;3.396;2022-08-14T03:55:18;27.30;42.90
14705;DHT22;7442;50.840;3.396;2022-08-14T03:58:08;27.20;43.00
14705;DHT22;7442;50.840;3.396;2022-08-14T04:00:56;27.30;43.00
14705;DHT22;7442;50.840;3.396;2022-08-14T04:03:43;27.30;42.90
14705;DHT22;7442;50.840;3.396;2022-08-14T04:06:29;27.30;43.00
14705;DHT22;7442;50.840;3.396;2022-08-14T04:09:16;27.30;43.00
14705;DHT22;7442;50.840;3.396;2022-08-14T04:12:03;27.20;42.90
14705;DHT22;7442;50.840;3.396;2022-08-14T04:14:50;27.20;42.90
14705;DHT22;7442;50.840;3.396;2022-08-14T04:17:37;27.20;42.90
14705;DHT22;7442;50.840;3.396;2022-08-14T04:20:30;27.20;42.90
14705;DHT22;7442;50.840;3.396;2022-08-14T04:23:16;27.20;42.90
14705;DHT22;7442;50.840;3.396;2022-08-14T04:26:07;27.10;42.90
14705;DHT22;7442;50.840;3.396;2022-08-14T04:28:54;27.10;42.90
14705;DHT22;7442;50.840;3.396;2022-08-14T04:31:41;27.10;43.10
14705;DHT22;7442;50.840;3.396;2022-08-14T04:34:27;27.10;43.00
14705;DHT22;7442;50.840;3.396;2022-08-14T04:37:14;27.10;43.00
14705;DHT22;7442;50.840;3.396;2022-08-14T04:40:18;27.00;43.10
14705;DHT22;7442;50.840;3.396;2022-08-14T04:43:22;26.90;43.10
14705;DHT22;7442;50.840;3.396;2022-08-14T04:46:22;26.90;43.10
14705;DHT22;7442;50.840;3.396;2022-08-14T04:49:09;27.00;43.20
14705;DHT22;7442;50.840;3.396;2022-08-14T04:51:58;26.90;43.10
14705;DHT22;7442;50.840;3.396;2022-08-14T04:54:45;26.90;43.10
14705;DHT22;7442;50.840;3.396;2022-08-14T04:57:31;26.90;43.30
14705;DHT22;7442;50.840;3.396;2022-08-14T05:00:19;26.90;43.30
14705;DHT22;7442;50.840;3.396;2022-08-14T05:03:09;26.90;43.20
14705;DHT22;7442;50.840;3.396;2022-08-14T05:05:57;26.90;43.20
14705;DHT22;7442;50.840;3.396;2022-08-14T05:08:44;26.90;43.10
14705;DHT22;7442;50.840;3.396;2022-08-14T05:11:31;26.90;43.10
14705;DHT22;7442;50.840;3.396;2022-08-14T05:14:21;26.90;43.10
14705;DHT22;7442;50.840;3.396;2022-08-14T05:17:10;26.90;43.10
14705;DHT22;7442;50.840;3.396;2022-08-14T05:19:57;26.90;43.00
14705;DHT22;7442;50.840;3.396;2022-08-14T05:22:46;26.90;43.10
14705;DHT22;7442;50.840;3.396;2022-08-14T05:25:34;26.80;43.40
14705;DHT22;7442;50.840;3.396;2022-08-14T05:28:25;26.80;43.30
14705;DHT22;7442;50.840;3.396;2022-08-14T05:31:14;26.90;43.30
14705;DHT22;7442;50.840;3.396;2022-08-14T05:34:02;26.80;43.20
14705;DHT22;7442;50.840;3.396;2022-08-14T05:36:49;26.90;43.20
14705;DHT22;7442;50.840;3.396;2022-08-14T05:39:38;26.80;43.20
14705;DHT22;7442;50.840;3.396;2022-08-14T05:42:25;26.90;43.30
14705;DHT22;7442;50.840;3.396;2022-08-14T05:45:12;26.90;43.30
14705;DHT22;7442;50.840;3.396;2022-08-14T05:48:03;26.90;43.20
14705;DHT22;7442;50.840;3.396;2022-08-14T05:50:50;26.90;43.10
14705;DHT22;7442;50.840;3.396;2022-08-14T05:53:38;27.00;43.20
14705;DHT22;7442;50.840;3.396;2022-08-14T05:56:25;27.00;43.10
14705;DHT22;7442;50.840;3.396;2022-08-14T05:59:17;26.90;43.10
14705;DHT22;7442;50.840;3.396;2022-08-14T06:02:04;26.90;43.20
14705;DHT22;7442;50.840;3.396;2022-08-14T06:04:50;26.90;43.10
14705;DHT22;7442;50.840;3.396;2022-08-14T06:07:37;26.90;43.20
14705;DHT22;7442;50.840;3.396;2022-08-14T06:10:25;26.90;43.40
14705;DHT22;7442;50.840;3.396;2022-08-14T06:13:13;26.90;43.30
14705;DHT22;7442;50.840;3.396;2022-08-14T06:15:59;27.00;43.30
14705;DHT22;7442;50.840;3.396;2022-08-14T06:18:47;26.90;43.20
14705;DHT22;7442;50.840;3.396;2022-08-14T06:21:33;26.90;43.20
14705;DHT22;7442;50.840;3.396;2022-08-14T06:24:21;27.00;43.20
14705;DHT22;7442;50.840;3.396;2022-08-14T06:27:08;27.10;43.20
14705;DHT22;7442;50.840;3.396;2022-08-14T06:29:54;27.00;43.20
14705;DHT22;7442;50.840;3.396;2022-08-14T06:32:41;27.10;43.30
14705;DHT22;7442;50.840;3.396;2022-08-14T06:35:27;27.10;43.40
14705;DHT22;7442;50.840;3.396;2022-08-14T06:38:16;27.10;43.40
14705;DHT22;7442;50.840;3.396;2022-08-14T06:41:03;27.10;43.30
14705;DHT22;7442;50.840;3.396;2022-08-14T06:43:49;27.20;43.40
14705;DHT22;7442;50.840;3.396;2022-08-14T06:46:35;27.20;43.40
14705;DHT22;7442;50.840;3.396;2022-08-14T06:49:24;27.20;43.50
14705;DHT22;7442;50.840;3.396;2022-08-14T06:52:10;27.20;43.60
14705;DHT22;7442;50.840;3.396;2022-08-14T06:54:56;27.20;43.60
14705;DHT22;7442;50.840;3.396;2022-08-14T06:57:44;27.20;43.60
14705;DHT22;7442;50.840;3.396;2022-08-14T07:00:31;27.30;43.60
14705;DHT22;7442;50.840;3.396;2022-08-14T07:03:24;27.30;43.70
14705;DHT22;7442;50.840;3.396;2022-08-14T07:06:29;27.40;43.70
14705;DHT22;7442;50.840;3.396;2022-08-14T07:09:15;27.30;45.40
14705;DHT22;7442;50.840;3.396;2022-08-14T07:12:03;27.30;46.50
14705;DHT22;7442;50.840;3.396;2022-08-14T07:14:50;27.20;46.90
14705;DHT22;7442;50.840;3.396;2022-08-14T07:17:47;27.20;46.60
14705;DHT22;7442;50.840;3.396;2022-08-14T07:20:34;27.20;46.40
14705;DHT22;7442;50.840;3.396;2022-08-14T07:23:21;27.20;46.30
14705;DHT22;7442;50.840;3.396;2022-08-14T07:26:13;27.20;46.20
14705;DHT22;7442;50.840;3.396;2022-08-14T07:28:59;27.50;45.20
14705;DHT22;7442;50.840;3.396;2022-08-14T07:31:45;27.80;44.90
14705;DHT22;7442;50.840;3.396;2022-08-14T07:34:32;27.90;44.80
14705;DHT22;7442;50.840;3.396;2022-08-14T07:37:21;27.90;44.40
14705;DHT22;7442;50.840;3.396;2022-08-14T07:40:08;27.90;44.30
14705;DHT22;7442;50.840;3.396;2022-08-14T07:42:54;27.90;44.00
14705;DHT22;7442;50.840;3.396;2022-08-14T07:45:41;28.00;43.80
14705;DHT22;7442;50.840;3.396;2022-08-14T07:48:28;28.00;44.00
14705;DHT22;7442;50.840;3.396;2022-08-14T07:51:14;27.90;44.70
14705;DHT22;7442;50.840;3.396;2022-08-14T07:54:00;27.90;44.40
14705;DHT22;7442;50.840;3.396;2022-08-14T07:56:47;27.90;44.40
14705;DHT22;7442;50.840;3.396;2022-08-14T07:59:33;28.00;44.30
14705;DHT22;7442;50.840;3.396;2022-08-14T08:02:20;27.90;44.30
14705;DHT22;7442;50.840;3.396;2022-08-14T08:05:08;27.90;44.10
14705;DHT22;7442;50.840;3.396;2022-08-14T08:07:54;27.90;43.80
14705;DHT22;7442;50.840;3.396;2022-08-14T08:10:41;28.00;44.30
14705;DHT22;7442;50.840;3.396;2022-08-14T08:13:31;28.00;45.00
14705;DHT22;7442;50.840;3.396;2022-08-14T08:16:18;28.10;44.50
14705;DHT22;7442;50.840;3.396;2022-08-14T08:19:07;28.10;44.00
14705;DHT22;7442;50.840;3.396;2022-08-14T08:21:59;28.10;43.70
14705;DHT22;7442;50.840;3.396;2022-08-14T08:24:46;28.10;44.00
14705;DHT22;7442;50.840;3.396;2022-08-14T08:27:39;28.10;43.70
14705;DHT22;7442;50.840;3.396;2022-08-14T08:30:27;28.10;43.60
14705;DHT22;7442;50.840;3.396;2022-08-14T08:33:14;28.20;43.40
14705;DHT22;7442;50.840;3.396;2022-08-14T08:36:07;28.20;43.70
14705;DHT22;7442;50.840;3.396;2022-08-14T08:39:00;28.20;43.20
14705;DHT22;7442;50.840;3.396;2022-08-14T08:41:47;28.20;43.30
14705;DHT22;7442;50.840;3.396;2022-08-14T08:44:33;28.30;43.10
14705;DHT22;7442;50.840;3.396;2022-08-14T08:47:24;28.30;42.80
14705;DHT22;7442;50.840;3.396;2022-08-14T08:50:20;28.40;43.00
14705;DHT22;7442;50.840;3.396;2022-08-14T08:53:08;28.40;42.80
14705;DHT22;7442;50.840;3.396;2022-08-14T08:55:55;28.50;42.50
14705;DHT22;7442;50.840;3.396;2022-08-14T08:58:41;28.60;41.90
14705;DHT22;7442;50.840;3.396;2022-08-14T09:01:29;28.60;41.40
14705;DHT22;7442;50.840;3.396;2022-08-14T09:04:17;28.60;41.90
14705;DHT22;7442;50.840;3.396;2022-08-14T09:07:04;28.60;41.50
14705;DHT22;7442;50.840;3.396;2022-08-14T09:09:52;28.60;41.60
14705;DHT22;7442;50.840;3.396;2022-08-14T09:12:40;28.60;41.70
14705;DHT22;7442;50.840;3.396;2022-08-14T09:15:26;28.60;41.70
14705;DHT22;7442;50.840;3.396;2022-08-14T09:18:15;28.60;41.70
14705;DHT22;7442;50.840;3.396;2022-08-14T09:21:01;28.60;41.80
14705;DHT22;7442;50.840;3.396;2022-08-14T09:23:48;28.60;41.60
14705;DHT22;7442;50.840;3.396;2022-08-14T09:26:35;28.60;41.40
14705;DHT22;7442;50.840;3.396;2022-08-14T09:29:22;28.60;41.40
14705;DHT22;7442;50.840;3.396;2022-08-14T09:32:11;28.60;41.60
14705;DHT22;7442;50.840;3.396;2022-08-14T09:35:08;28.60;41.70
14705;DHT22;7442;50.840;3.396;2022-08-14T09:41:32;28.70;41.50
14705;DHT22;7442;50.840;3.396;2022-08-14T09:47:06;29.00;41.30
14705;DHT22;7442;50.840;3.396;2022-08-14T09:49:54;29.00;41.20
14705;DHT22;7442;50.840;3.396;2022-08-14T09:53:02;29.00;41.20
14705;DHT22;7442;50.840;3.396;2022-08-14T09:55:57;29.10;41.10
14705;DHT22;7442;50.840;3.396;2022-08-14T09:58:43;29.00;41.20
14705;DHT22;7442;50.840;3.396;2022-08-14T10:01:34;28.90;41.50
14705;DHT22;7442;50.840;3.396;2022-08-14T10:04:21;28.90;41.70
14705;DHT22;7442;50.840;3.396;2022-08-14T10:07:09;28.90;41.80
14705;DHT22;7442;50.840;3.396;2022-08-14T10:09:56;29.00;41.80
14705;DHT22;7442;50.840;3.396;2022-08-14T10:12:44;29.00;41.80
14705;DHT22;7442;50.840;3.396;2022-08-14T10:15:36;29.00;41.90
14705;DHT22;7442;50.840;3.396;2022-08-14T10:18:25;29.00;41.80
14705;DHT22;7442;50.840;3.396;2022-08-14T10:21:15;29.00;41.80
14705;DHT22;7442;50.840;3.396;2022-08-14T10:24:00;29.10;41.80
14705;DHT22;7442;50.840;3.396;2022-08-14T10:26:56;29.10;41.80
14705;DHT22;7442;50.840;3.396;2022-08-14T10:29:42;29.10;41.70
14705;DHT22;7442;50.840;3.396;2022-08-14T10:32:29;29.10;41.50
14705;DHT22;7442;50.840;3.396;2022-08-14T10:35:16;29.20;41.40
14705;DHT22;7442;50.840;3.396;2022-08-14T10:38:03;29.20;41.40
14705;DHT22;7442;50.840;3.396;2022-08-14T10:40:56;29.20;42.00
14705;DHT22;7442;50.840;3.396;2022-08-14T10:44:04;29.30;41.30
14705;DHT22;7442;50.840;3.396;2022-08-14T10:46:38;29.30;41.30
14705;DHT22;7442;50.840;3.396;2022-08-14T10:49:26;29.30;41.40
14705;DHT22;7442;50.840;3.396;2022-08-14T10:52:21;29.30;41.30
14705;DHT22;7442;50.840;3.396;2022-08-14T10:55:14;29.30;41.20
14705;DHT22;7442;50.840;3.396;2022-08-14T10:58:02;29.30;41.00
14705;DHT22;7442;50.840;3.396;2022-08-14T11:00:55;29.20;41.20
14705;DHT22;7442;50.840;3.396;2022-08-14T11:03:42;29.30;41.10
14705;DHT22;7442;50.840;3.396;2022-08-14T11:06:30;29.20;41.20
14705;DHT22;7442;50.840;3.396;2022-08-14T11:09:17;29.20;41.10
14705;DHT22;7442;50.840;3.396;2022-08-14T11:12:04;29.20;41.10
14705;DHT22;7442;50.840;3.396;2022-08-14T11:14:52;29.20;41.10
14705;DHT22;7442;50.840;3.396;2022-08-14T11:17:40;29.20;41.20
14705;DHT22;7442;50.840;3.396;2022-08-14T11:20:34;29.10;41.20
14705;DHT22;7442;50.840;3.396;2022-08-14T11:23:29;29.10;41.20
14705;DHT22;7442;50.840;3.396;2022-08-14T11:26:17;29.10;41.30
14705;DHT22;7442;50.840;3.396;2022-08-14T11:29:05;29.20;41.20
14705;DHT22;7442;50.840;3.396;2022-08-14T11:32:06;29.20;41.20
14705;DHT22;7442;50.840;3.396;2022-08-14T11:34:58;29.30;41.10
14705;DHT22;7442;50.840;3.396;2022-08-14T11:38:07;29.30;41.10
14705;DHT22;7442;50.840;3.396;2022-08-14T11:40:39;29.20;41.00
14705;DHT22;7442;50.840;3.396;2022-08-14T11:43:27;29.30;40.90
14705;DHT22;7442;50.840;3.396;2022-08-14T11:46:14;29.30;40.80
14705;DHT22;7442;50.840;3.396;2022-08-14T11:49:01;29.30;40.70
14705;DHT22;7442;50.840;3.396;2022-08-14T11:51:52;29.30;40.70
14705;DHT22;7442;50.840;3.396;2022-08-14T11:54:39;29.30;40.70
14705;DHT22;7442;50.840;3.396;2022-08-14T11:57:25;29.30;40.70
14705;DHT22;7442;50.840;3.396;2022-08-14T12:00:15;29.30;40.80
14705;DHT22;7442;50.840;3.396;2022-08-14T12:03:02;29.40;40.80
14705;DHT22;7442;50.840;3.396;2022-08-14T12:05:50;29.40;40.70
14705;DHT22;7442;50.840;3.396;2022-08-14T12:08:37;29.40;40.70
14705;DHT22;7442;50.840;3.396;2022-08-14T12:11:26;29.40;40.60
14705;DHT22;7442;50.840;3.396;2022-08-14T12:14:14;29.40;40.50
14705;DHT22;7442;50.840;3.396;2022-08-14T12:17:04;29.40;40.60
14705;DHT22;7442;50.840;3.396;2022-08-14T12:19:54;29.50;40.50
14705;DHT22;7442;50.840;3.396;2022-08-14T12:22:45;29.50;40.40
14705;DHT22;7442;50.840;3.396;2022-08-14T12:25:33;29.50;40.30
14705;DHT22;7442;50.840;3.396;2022-08-14T12:28:22;29.50;40.30
14705;DHT22;7442;50.840;3.396;2022-08-14T12:31:13;29.50;40.20
14705;DHT22;7442;50.840;3.396;2022-08-14T12:34:04;29.50;40.20
14705;DHT22;7442;50.840;3.396;2022-08-14T12:37:06;29.40;40.20
14705;DHT22;7442;50.840;3.396;2022-08-14T12:39:53;29.40;40.20
14705;DHT22;7442;50.840;3.396;2022-08-14T12:42:40;29.50;40.20
14705;DHT22;7442;50.840;3.396;2022-08-14T12:45:32;29.50;40.20
14705;DHT22;7442;50.840;3.396;2022-08-14T12:48:24;29.50;40.10
14705;DHT22;7442;50.840;3.396;2022-08-14T12:51:20;29.50;40.00
14705;DHT22;7442;50.840;3.396;2022-08-14T12:54:15;29.50;40.10
14705;DHT22;7442;50.840;3.396;2022-08-14T12:57:07;29.50;40.00
14705;DHT22;7442;50.840;3.396;2022-08-14T13:00:03;29.60;40.00
14705;DHT22;7442;50.840;3.396;2022-08-14T13:02:49;29.60;39.90
14705;DHT22;7442;50.840;3.396;2022-08-14T13:05:36;29.60;39.80
14705;DHT22;7442;50.840;3.396;2022-08-14T13:08:28;29.60;39.80
14705;DHT22;7442;50.840;3.396;2022-08-14T13:11:16;29.60;39.80
14705;DHT22;7442;50.840;3.396;2022-08-14T13:14:05;29.60;39.80
14705;DHT22;7442;50.840;3.396;2022-08-14T13:16:54;29.60;39.70
14705;DHT22;7442;50.840;3.396;2022-08-14T13:19:42;29.70;39.70
14705;DHT22;7442;50.840;3.396;2022-08-14T13:22:30;29.70;39.60
14705;DHT22;7442;50.840;3.396;2022-08-14T13:25:19;29.70;39.60
14705;DHT22;7442;50.840;3.396;2022-08-14T13:28:06;29.80;39.50
14705;DHT22;7442;50.840;3.396;2022-08-14T13:30:53;29.80;39.40
14705;DHT22;7442;50.840;3.396;2022-08-14T13:33:41;29.80;39.40
14705;DHT22;7442;50.840;3.396;2022-08-14T13:36:27;29.80;39.50
14705;DHT22;7442;50.840;3.396;2022-08-14T13:39:15;29.80;39.50
14705;DHT22;7442;50.840;3.396;2022-08-14T13:42:05;29.80;39.50
14705;DHT22;7442;50.840;3.396;2022-08-14T13:44:58;29.80;39.30
14705;DHT22;7442;50.840;3.396;2022-08-14T13:47:45;29.80;39.30
14705;DHT22;7442;50.840;3.396;2022-08-14T13:50:32;29.80;39.20
14705;DHT22;7442;50.840;3.396;2022-08-14T13:53:22;29.80;39.20
14705;DHT22;7442;50.840;3.396;2022-08-14T13:56:10;29.90;39.00
14705;DHT22;7442;50.840;3.396;2022-08-14T13:58:57;29.90;38.90
14705;DHT22;7442;50.840;3.396;2022-08-14T14:01:44;29.90;38.90
14705;DHT22;7442;50.840;3.396;2022-08-14T14:04:31;30.00;39.00
14705;DHT22;7442;50.840;3.396;2022-08-14T14:07:20;30.00;38.90
14705;DHT22;7442;50.840;3.396;2022-08-14T14:10:08;30.00;38.80
14705;DHT22;7442;50.840;3.396;2022-08-14T14:12:54;30.00;38.90
14705;DHT22;7442;50.840;3.396;2022-08-14T14:15:41;30.00;38.90
14705;DHT22;7442;50.840;3.396;2022-08-14T14:18:30;30.00;38.80
14705;DHT22;7442;50.840;3.396;2022-08-14T14:21:19;29.90;38.90
14705;DHT22;7442;50.840;3.396;2022-08-14T14:24:06;29.90;38.90
14705;DHT22;7442;50.840;3.396;2022-08-14T14:26:54;29.90;38.90
14705;DHT22;7442;50.840;3.396;2022-08-14T14:29:43;29.90;38.90
14705;DHT22;7442;50.840;3.396;2022-08-14T14:32:32;29.90;38.90
14705;DHT22;7442;50.840;3.396;2022-08-14T14:35:19;30.00;38.90
14705;DHT22;7442;50.840;3.396;2022-08-14T14:38:08;30.00;38.90
14705;DHT22;7442;50.840;3.396;2022-08-14T14:40:56;30.00;38.90
14705;DHT22;7442;50.840;3.396;2022-08-14T14:43:46;30.00;38.80
14705;DHT22;7442;50.840;3.396;2022-08-14T14:46:35;30.00;38.80
14705;DHT22;7442;50.840;3.396;2022-08-14T14:49:22;30.00;38.90
14705;DHT22;7442;50.840;3.396;2022-08-14T14:52:09;30.00;38.80
14705;DHT22;7442;50.840;3.396;2022-08-14T14:54:57;30.10;38.90
14705;DHT22;7442;50.840;3.396;2022-08-14T14:57:45;30.10;38.80
14705;DHT22;7442;50.840;3.396;2022-08-14T15:00:32;30.10;38.90
14705;DHT22;7442;50.840;3.396;2022-08-14T15:03:18;30.00;38.80
14705;DHT22;7442;50.840;3.396;2022-08-14T15:06:05;30.00;38.90
14705;DHT22;7442;50.840;3.396;2022-08-14T15:08:52;30.10;39.00
14705;DHT22;7442;50.840;3.396;2022-08-14T15:11:39;30.00;39.00
14705;DHT22;7442;50.840;3.396;2022-08-14T15:14:26;30.00;39.00
14705;DHT22;7442;50.840;3.396;2022-08-14T15:17:13;30.10;39.00
14705;DHT22;7442;50.840;3.396;2022-08-14T15:20:04;30.10;39.00
14705;DHT22;7442;50.840;3.396;2022-08-14T15:22:51;30.10;39.00
14705;DHT22;7442;50.840;3.396;2022-08-14T15:25:39;30.10;39.00
14705;DHT22;7442;50.840;3.396;2022-08-14T15:28:27;30.10;39.00
14705;DHT22;7442;50.840;3.396;2022-08-14T15:31:34;30.10;39.00
14705;DHT22;7442;50.840;3.396;2022-08-14T15:34:20;30.10;39.00
14705;DHT22;7442;50.840;3.396;2022-08-14T15:36:48;30.10;39.10
14705;DHT22;7442;50.840;3.396;2022-08-14T15:39:17;30.10;38.90
14705;DHT22;7442;50.840;3.396;2022-08-14T15:41:45;30.10;38.80
14705;DHT22;7442;50.840;3.396;2022-08-14T15:44:15;30.10;38.90
14705;DHT22;7442;50.840;3.396;2022-08-14T15:46:45;30.10;38.80
14705;DHT22;7442;50.840;3.396;2022-08-14T15:49:12;30.10;38.80
14705;DHT22;7442;50.840;3.396;2022-08-14T15:51:41;30.10;38.90
14705;DHT22;7442;50.840;3.396;2022-08-14T15:54:10;30.10;39.00
14705;DHT22;7442;50.840;3.396;2022-08-14T15:56:38;30.10;39.00
14705;DHT22;7442;50.840;3.396;2022-08-14T15:59:08;30.10;39.00
14705;DHT22;7442;50.840;3.396;2022-08-14T16:01:36;30.10;39.10
14705;DHT22;7442;50.840;3.396;2022-08-14T16:04:04;30.10;39.00
14705;DHT22;7442;50.840;3.396;2022-08-14T16:06:32;30.10;39.10
14705;DHT22;7442;50.840;3.396;2022-08-14T16:09:00;30.10;39.10
14705;DHT22;7442;50.840;3.396;2022-08-14T16:11:30;30.10;39.10
14705;DHT22;7442;50.840;3.396;2022-08-14T16:13:59;30.10;39.10
14705;DHT22;7442;50.840;3.396;2022-08-14T16:16:28;30.10;39.10
14705;DHT22;7442;50.840;3.396;2022-08-14T16:18:57;30.10;39.10
14705;DHT22;7442;50.840;3.396;2022-08-14T16:21:26;30.10;39.00
14705;DHT22;7442;50.840;3.396;2022-08-14T16:23:56;30.10;39.10
14705;DHT22;7442;50.840;3.396;2022-08-14T16:26:26;30.10;39.10
14705;DHT22;7442;50.840;3.396;2022-08-14T16:28:58;30.00;39.20
14705;DHT22;7442;50.840;3.396;2022-08-14T16:31:31;30.00;39.30
14705;DHT22;7442;50.840;3.396;2022-08-14T16:33:59;30.00;39.30
14705;DHT22;7442;50.840;3.396;2022-08-14T16:36:27;30.10;39.40
14705;DHT22;7442;50.840;3.396;2022-08-14T16:38:58;30.10;39.40
14705;DHT22;7442;50.840;3.396;2022-08-14T16:41:28;30.00;39.30
14705;DHT22;7442;50.840;3.396;2022-08-14T16:44:08;30.00;39.30
14705;DHT22;7442;50.840;3.396;2022-08-14T16:46:41;30.00;39.30
14705;DHT22;7442;50.840;3.396;2022-08-14T16:49:12;29.90;39.30
14705;DHT22;7442;50.840;3.396;2022-08-14T16:51:42;29.90;39.40
14705;DHT22;7442;50.840;3.396;2022-08-14T16:54:13;29.90;39.40
14705;DHT22;7442;50.840;3.396;2022-08-14T16:56:45;30.00;39.50
14705;DHT22;7442;50.840;3.396;2022-08-14T16:59:31;30.10;39.50
14705;DHT22;7442;50.840;3.396;2022-08-14T17:02:36;30.10;39.10
14705;DHT22;7442;50.840;3.396;2022-08-14T17:05:25;30.10;39.10
14705;DHT22;7442;50.840;3.396;2022-08-14T17:08:15;30.20;39.20
14705;DHT22;7442;50.840;3.396;2022-08-14T17:11:04;30.30;39.30
14705;DHT22;7442;50.840;3.396;2022-08-14T17:13:50;30.30;39.70
14705;DHT22;7442;50.840;3.396;2022-08-14T17:16:37;30.20;38.70
14705;DHT22;7442;50.840;3.396;2022-08-14T17:19:24;30.20;38.70
14705;DHT22;7442;50.840;3.396;2022-08-14T17:22:11;30.30;38.80
14705;DHT22;7442;50.840;3.396;2022-08-14T17:24:58;30.20;38.70
14705;DHT22;7442;50.840;3.396;2022-08-14T17:27:44;30.20;38.70
14705;DHT22;7442;50.840;3.396;2022-08-14T17:30:46;30.20;38.60
14705;DHT22;7442;50.840;3.396;2022-08-14T17:33:35;30.20;38.60
14705;DHT22;7442;50.840;3.396;2022-08-14T17:36:22;30.20;38.90
14705;DHT22;7442;50.840;3.396;2022-08-14T17:39:16;30.20;38.70
14705;DHT22;7442;50.840;3.396;2022-08-14T17:42:05;30.20;38.70
14705;DHT22;7442;50.840;3.396;2022-08-14T17:44:58;30.20;38.80
14705;DHT22;7442;50.840;3.396;2022-08-14T17:47:42;30.30;38.70
14705;DHT22;7442;50.840;3.396;2022-08-14T17:50:46;30.30;38.70
14705;DHT22;7442;50.840;3.396;2022-08-14T17:53:33;30.30;38.70
14705;DHT22;7442;50.840;3.396;2022-08-14T17:56:20;30.30;38.80
14705;DHT22;7442;50.840;3.396;2022-08-14T17:59:06;30.20;38.80
14705;DHT22;7442;50.840;3.396;2022-08-14T18:01:54;30.20;39.30